sensor_id;sensor_type;location;lat;lon;timestamp;temperature;humidity
23329;DHT22;11836;51.050;3.716;2023-03-14T00:00:31;17.40;99.90
23329;DHT22;11836;51.050;3.716;2023-03-14T00:02:57;17.40;99.90
23329;DHT22;11836;51.050;3.716;2023-03-14T00:05:23;17.40;99.90
23329;DHT22;11836;51.050;3.716;2023-03-14T00:07:48;17.30;99.90
23329;DHT22;11836;51.050;3.716;2023-03-14T00:10:14;17.40;99.90
23329;DHT22;11836;51.050;3.716;2023-03-14T00:12:41;17.30;99.90
23329;DHT22;11836;51.050;3.716;2023-03-14T00:15:07;17.30;99.90
23329;DHT22;11836;51.050;3.716;2023-03-14T00:17:35;17.30;99.90
23329;DHT22;11836;51.050;3.716;2023-03-14T00:20:01;17.30;99.90
23329;DHT22;11836;51.050;3.716;2023-03-14T00:22:36;17.30;99.90
23329;DHT22;11836;51.050;3.716;2023-03-14T00:25:02;17.30;99.90
23329;DHT22;11836;51.050;3.716;2023-03-14T07:12:20;14.40;99.90
23329;DHT22;11836;51.050;3.716;2023-03-14T07:14:46;15.50;99.90
23329;DHT22;11836;51.050;3.716;2023-03-14T07:17:11;15.60;99.90
23329;DHT22;11836;51.050;3.716;2023-03-14T07:19:37;15.60;99.90
23329;DHT22;11836;51.050;3.716;2023-03-14T07:22:04;15.70;99.90
23329;DHT22;11836;51.050;3.716;2023-03-14T07:24:30;15.70;99.90
23329;DHT22;11836;51.050;3.716;2023-03-14T07:26:55;15.70;99.90
23329;DHT22;11836;51.050;3.716;2023-03-14T07:29:21;15.80;99.90
23329;DHT22;11836;51.050;3.716;2023-03-14T07:31:46;15.80;99.90
23329;DHT22;11836;51.050;3.716;2023-03-14T07:34:12;15.90;99.90
23329;DHT22;11836;51.050;3.716;2023-03-14T07:36:38;15.90;99.90
23329;DHT22;11836;51.050;3.716;2023-03-14T07:39:04;15.90;99.90
23329;DHT22;11836;51.050;3.716;2023-03-14T07:41:59;15.90;99.90
23329;DHT22;11836;51.050;3.716;2023-03-14T07:44:24;16.00;99.90
23329;DHT22;11836;51.050;3.716;2023-03-14T07:46:50;16.10;99.90
23329;DHT22;11836;51.050;3.716;2023-03-14T07:49:16;16.10;99.90
23329;DHT22;11836;51.050;3.716;2023-03-14T07:51:41;16.10;99.90
23329;DHT22;11836;51.050;3.716;2023-03-14T07:54:09;16.20;99.90
23329;DHT22;11836;51.050;3.716;2023-03-14T07:56:35;16.20;99.90
23329;DHT22;11836;51.050;3.716;2023-03-14T07:59:01;16.20;99.90
23329;DHT22;11836;51.050;3.716;2023-03-14T08:01:26;16.30;99.90
23329;DHT22;11836;51.050;3.716;2023-03-14T08:03:52;16.30;99.90
23329;DHT22;11836;51.050;3.716;2023-03-14T08:06:18;16.30;99.90
23329;DHT22;11836;51.050;3.716;2023-03-14T08:08:43;16.40;99.90
23329;DHT22;11836;51.050;3.716;2023-03-14T08:11:09;16.40;99.90
23329;DHT22;11836;51.050;3.716;2023-03-14T08:13:36;16.40;99.90
23329;DHT22;11836;51.050;3.716;2023-03-14T08:16:02;16.40;99.90
23329;DHT22;11836;51.050;3.716;2023-03-14T08:18:27;16.50;99.90
23329;DHT22;11836;51.050;3.716;2023-03-14T08:20:53;16.50;99.90
23329;DHT22;11836;51.050;3.716;2023-03-14T08:23:19;16.50;99.90
23329;DHT22;11836;51.050;3.716;2023-03-14T08:25:44;16.50;99.90
23329;DHT22;11836;51.050;3.716;2023-03-14T08:28:10;16.50;99.90
23329;DHT22;11836;51.050;3.716;2023-03-14T08:30:36;16.60;99.90
23329;DHT22;11836;51.050;3.716;2023-03-14T08:33:01;16.60;99.90
23329;DHT22;11836;51.050;3.716;2023-03-14T08:35:27;16.60;99.90
23329;DHT22;11836;51.050;3.716;2023-03-14T08:37:53;16.60;99.90
23329;DHT22;11836;51.050;3.716;2023-03-14T08:40:19;16.60;99.90
23329;DHT22;11836;51.050;3.716;2023-03-14T08:42:45;16.70;99.90
23329;DHT22;11836;51.050;3.716;2023-03-14T08:45:13;16.70;99.90
23329;DHT22;11836;51.050;3.716;2023-03-14T08:47:43;16.80;99.90
23329;DHT22;11836;51.050;3.716;2023-03-14T08:50:09;16.80;99.90
23329;DHT22;11836;51.050;3.716;2023-03-14T08:52:35;16.80;99.90
23329;DHT22;11836;51.050;3.716;2023-03-14T08:55:03;16.90;99.90
23329;DHT22;11836;51.050;3.716;2023-03-14T08:57:32;16.90;99.90
23329;DHT22;11836;51.050;3.716;2023-03-14T08:59:57;16.90;99.90
23329;DHT22;11836;51.050;3.716;2023-03-14T09:02:24;16.90;99.90
23329;DHT22;11836;51.050;3.716;2023-03-14T09:04:50;16.90;99.90
23329;DHT22;11836;51.050;3.716;2023-03-14T09:07:17;17.00;99.90
23329;DHT22;11836;51.050;3.716;2023-03-14T09:09:45;17.00;99.90
23329;DHT22;11836;51.050;3.716;2023-03-14T09:12:11;17.00;99.90
23329;DHT22;11836;51.050;3.716;2023-03-14T09:14:37;16.90;99.90
23329;DHT22;11836;51.050;3.716;2023-03-14T09:17:03;17.00;99.90
23329;DHT22;11836;51.050;3.716;2023-03-14T09:19:32;17.00;99.90
23329;DHT22;11836;51.050;3.716;2023-03-14T09:21:57;17.00;99.90
23329;DHT22;11836;51.050;3.716;2023-03-14T09:24:23;17.00;99.90
23329;DHT22;11836;51.050;3.716;2023-03-14T09:26:49;17.00;99.90
23329;DHT22;11836;51.050;3.716;2023-03-14T09:29:14;17.00;99.90
23329;DHT22;11836;51.050;3.716;2023-03-14T09:31:40;17.00;99.90
23329;DHT22;11836;51.050;3.716;2023-03-14T09:34:05;17.00;99.90
23329;DHT22;11836;51.050;3.716;2023-03-14T09:36:31;17.10;99.90
23329;DHT22;11836;51.050;3.716;2023-03-14T09:38:57;17.00;99.90
23329;DHT22;11836;51.050;3.716;2023-03-14T09:41:33;17.10;99.90
23329;DHT22;11836;51.050;3.716;2023-03-14T09:46:52;17.10;99.90
23329;DHT22;11836;51.050;3.716;2023-03-14T09:49:23;17.10;99.90
23329;DHT22;11836;51.050;3.716;2023-03-14T09:51:53;17.10;99.90
23329;DHT22;11836;51.050;3.716;2023-03-14T09:54:43;17.10;99.90
23329;DHT22;11836;51.050;3.716;2023-03-14T09:57:18;17.00;99.90
23329;DHT22;11836;51.050;3.716;2023-03-14T09:59:49;17.00;99.90
23329;DHT22;11836;51.050;3.716;2023-03-14T10:02:20;17.00;99.90
23329;DHT22;11836;51.050;3.716;2023-03-14T10:05:07;17.00;99.90
23329;DHT22;11836;51.050;3.716;2023-03-14T10:07:34;17.00;99.90
23329;DHT22;11836;51.050;3.716;2023-03-14T10:09:59;17.00;99.90
23329;DHT22;11836;51.050;3.716;2023-03-14T10:12:32;17.00;99.90
23329;DHT22;11836;51.050;3.716;2023-03-14T10:15:08;17.00;99.90
23329;DHT22;11836;51.050;3.716;2023-03-14T10:17:53;17.10;99.90
23329;DHT22;11836;51.050;3.716;2023-03-14T10:23:05;17.00;99.90
23329;DHT22;11836;51.050;3.716;2023-03-14T10:25:35;17.00;99.90
23329;DHT22;11836;51.050;3.716;2023-03-14T10:28:03;16.90;99.90
23329;DHT22;11836;51.050;3.716;2023-03-14T10:30:49;16.90;99.90
23329;DHT22;11836;51.050;3.716;2023-03-14T10:33:27;16.90;99.90
23329;DHT22;11836;51.050;3.716;2023-03-14T10:35:57;16.90;99.90
23329;DHT22;11836;51.050;3.716;2023-03-14T10:38:27;16.90;99.90
23329;DHT22;11836;51.050;3.716;2023-03-14T10:40:54;16.90;99.90
23329;DHT22;11836;51.050;3.716;2023-03-14T10:45:52;16.90;99.90
23329;DHT22;11836;51.050;3.716;2023-03-14T10:48:33;16.90;99.90
23329;DHT22;11836;51.050;3.716;2023-03-14T10:54:01;16.80;99.90
23329;DHT22;11836;51.050;3.716;2023-03-14T10:56:33;16.80;99.90
23329;DHT22;11836;51.050;3.716;2023-03-14T10:58:59;16.80;99.90
23329;DHT22;11836;51.050;3.716;2023-03-14T11:01:44;16.70;99.90
23329;DHT22;11836;51.050;3.716;2023-03-14T11:07:25;16.80;99.90
23329;DHT22;11836;51.050;3.716;2023-03-14T11:16:09;16.80;99.90
23329;DHT22;11836;51.050;3.716;2023-03-14T11:18:29;16.80;99.90
23329;DHT22;11836;51.050;3.716;2023-03-14T11:20:55;16.80;99.90
23329;DHT22;11836;51.050;3.716;2023-03-14T11:28:49;17.10;99.90
23329;DHT22;11836;51.050;3.716;2023-03-14T11:31:26;17.00;99.90
23329;DHT22;11836;51.050;3.716;2023-03-14T11:36:40;17.10;99.90
23329;DHT22;11836;51.050;3.716;2023-03-14T11:39:18;17.10;99.90
23329;DHT22;11836;51.050;3.716;2023-03-14T11:41:50;17.10;99.90
23329;DHT22;11836;51.050;3.716;2023-03-14T11:44:23;17.10;99.90
23329;DHT22;11836;51.050;3.716;2023-03-14T11:52:08;17.10;99.70
23329;DHT22;11836;51.050;3.716;2023-03-14T11:57:26;17.10;99.20
23329;DHT22;11836;51.050;3.716;2023-03-14T11:59:56;17.10;99.30
23329;DHT22;11836;51.050;3.716;2023-03-14T12:05:50;17.00;99.20
23329;DHT22;11836;51.050;3.716;2023-03-14T12:08:29;17.10;99.30
23329;DHT22;11836;51.050;3.716;2023-03-14T12:11:08;17.10;99.00
23329;DHT22;11836;51.050;3.716;2023-03-14T12:13:38;16.80;99.00
23329;DHT22;11836;51.050;3.716;2023-03-14T12:16:06;17.00;99.10
23329;DHT22;11836;51.050;3.716;2023-03-14T12:18:35;17.00;99.10
23329;DHT22;11836;51.050;3.716;2023-03-14T12:21:06;17.00;99.20
23329;DHT22;11836;51.050;3.716;2023-03-14T12:23:53;17.00;99.00
23329;DHT22;11836;51.050;3.716;2023-03-14T12:26:22;17.00;99.10
23329;DHT22;11836;51.050;3.716;2023-03-14T12:39:24;17.00;99.90
23329;DHT22;11836;51.050;3.716;2023-03-14T12:42:12;16.90;99.90
23329;DHT22;11836;51.050;3.716;2023-03-14T12:44:46;16.90;99.90
23329;DHT22;11836;51.050;3.716;2023-03-14T12:49:49;16.90;99.90
23329;DHT22;11836;51.050;3.716;2023-03-14T12:52:33;16.80;99.90
23329;DHT22;11836;51.050;3.716;2023-03-14T12:55:12;16.80;99.90
23329;DHT22;11836;51.050;3.716;2023-03-14T12:57:45;16.80;99.90
23329;DHT22;11836;51.050;3.716;2023-03-14T13:00:23;16.80;99.90
23329;DHT22;11836;51.050;3.716;2023-03-14T13:12:09;16.80;99.80
23329;DHT22;11836;51.050;3.716;2023-03-14T13:14:35;16.70;99.60
23329;DHT22;11836;51.050;3.716;2023-03-14T13:17:02;16.70;99.90
23329;DHT22;11836;51.050;3.716;2023-03-14T13:19:33;16.80;99.80
23329;DHT22;11836;51.050;3.716;2023-03-14T13:22:18;16.80;99.60
23329;DHT22;11836;51.050;3.716;2023-03-14T13:24:45;16.90;99.40
23329;DHT22;11836;51.050;3.716;2023-03-14T13:27:19;16.90;98.70
23329;DHT22;11836;51.050;3.716;2023-03-14T13:29:49;16.90;98.50
23329;DHT22;11836;51.050;3.716;2023-03-14T13:32:26;16.90;98.40
23329;DHT22;11836;51.050;3.716;2023-03-14T13:34:56;16.90;98.60
23329;DHT22;11836;51.050;3.716;2023-03-14T13:37:29;17.00;98.40
23329;DHT22;11836;51.050;3.716;2023-03-14T13:39:57;16.90;98.90
23329;DHT22;11836;51.050;3.716;2023-03-14T13:42:29;16.90;99.30
23329;DHT22;11836;51.050;3.716;2023-03-14T13:44:56;17.00;99.20
23329;DHT22;11836;51.050;3.716;2023-03-14T13:47:24;17.00;98.90
23329;DHT22;11836;51.050;3.716;2023-03-14T13:50:05;17.00;99.40
23329;DHT22;11836;51.050;3.716;2023-03-14T13:52:35;17.00;99.50
23329;DHT22;11836;51.050;3.716;2023-03-14T13:55:03;17.00;99.10
23329;DHT22;11836;51.050;3.716;2023-03-14T13:57:47;17.00;99.10
23329;DHT22;11836;51.050;3.716;2023-03-14T14:00:18;17.00;99.50
23329;DHT22;11836;51.050;3.716;2023-03-14T14:02:44;17.00;99.10
23329;DHT22;11836;51.050;3.716;2023-03-14T14:05:11;17.00;99.00
23329;DHT22;11836;51.050;3.716;2023-03-14T14:07:38;16.90;98.30
23329;DHT22;11836;51.050;3.716;2023-03-14T14:10:04;16.90;98.70
23329;DHT22;11836;51.050;3.716;2023-03-14T14:12:55;16.90;98.80
23329;DHT22;11836;51.050;3.716;2023-03-14T14:15:22;16.90;98.70
23329;DHT22;11836;51.050;3.716;2023-03-14T14:18:04;16.90;98.50
23329;DHT22;11836;51.050;3.716;2023-03-14T14:20:44;16.80;98.90
23329;DHT22;11836;51.050;3.716;2023-03-14T14:23:14;16.90;99.40
23329;DHT22;11836;51.050;3.716;2023-03-14T14:25:40;16.90;99.70
23329;DHT22;11836;51.050;3.716;2023-03-14T14:28:26;16.90;99.50
23329;DHT22;11836;51.050;3.716;2023-03-14T14:33:45;16.90;99.80
23329;DHT22;11836;51.050;3.716;2023-03-14T14:36:24;16.90;99.80
23329;DHT22;11836;51.050;3.716;2023-03-14T14:41:41;16.90;99.50
23329;DHT22;11836;51.050;3.716;2023-03-14T14:44:07;16.90;99.80
23329;DHT22;11836;51.050;3.716;2023-03-14T14:46:36;16.90;99.90
23329;DHT22;11836;51.050;3.716;2023-03-14T14:49:14;17.00;99.50
23329;DHT22;11836;51.050;3.716;2023-03-14T14:51:47;17.00;99.70
23329;DHT22;11836;51.050;3.716;2023-03-14T14:54:17;17.00;99.70
23329;DHT22;11836;51.050;3.716;2023-03-14T14:57:05;17.00;99.90
23329;DHT22;11836;51.050;3.716;2023-03-14T14:59:50;17.00;99.40
23329;DHT22;11836;51.050;3.716;2023-03-14T15:02:31;17.00;99.40
23329;DHT22;11836;51.050;3.716;2023-03-14T15:05:00;17.00;99.30
23329;DHT22;11836;51.050;3.716;2023-03-14T15:07:32;16.90;99.40
23329;DHT22;11836;51.050;3.716;2023-03-14T15:09:57;17.00;99.60
23329;DHT22;11836;51.050;3.716;2023-03-14T15:12:35;16.90;99.40
23329;DHT22;11836;51.050;3.716;2023-03-14T15:15:01;16.90;99.60
23329;DHT22;11836;51.050;3.716;2023-03-14T15:17:42;16.90;99.50
23329;DHT22;11836;51.050;3.716;2023-03-14T15:20:13;16.90;98.90
23329;DHT22;11836;51.050;3.716;2023-03-14T15:22:40;16.90;99.30
23329;DHT22;11836;51.050;3.716;2023-03-14T15:25:06;16.90;99.50
23329;DHT22;11836;51.050;3.716;2023-03-14T15:27:33;17.00;99.40
23329;DHT22;11836;51.050;3.716;2023-03-14T15:29:59;16.90;99.20
23329;DHT22;11836;51.050;3.716;2023-03-14T15:32:26;17.00;99.40
23329;DHT22;11836;51.050;3.716;2023-03-14T15:34:55;16.90;99.50
23329;DHT22;11836;51.050;3.716;2023-03-14T15:39:52;17.00;99.90
23329;DHT22;11836;51.050;3.716;2023-03-14T15:42:18;17.00;99.20
23329;DHT22;11836;51.050;3.716;2023-03-14T15:44:44;17.00;99.40
23329;DHT22;11836;51.050;3.716;2023-03-14T15:47:10;17.00;99.60
23329;DHT22;11836;51.050;3.716;2023-03-14T15:49:36;17.00;99.70
23329;DHT22;11836;51.050;3.716;2023-03-14T15:52:02;17.00;99.80
23329;DHT22;11836;51.050;3.716;2023-03-14T15:54:27;17.00;99.90
23329;DHT22;11836;51.050;3.716;2023-03-14T15:57:03;17.10;99.80
23329;DHT22;11836;51.050;3.716;2023-03-14T15:59:28;17.10;99.80
23329;DHT22;11836;51.050;3.716;2023-03-14T16:01:54;17.10;99.80
23329;DHT22;11836;51.050;3.716;2023-03-14T16:04:20;17.30;99.30
23329;DHT22;11836;51.050;3.716;2023-03-14T16:06:46;17.10;99.20
23329;DHT22;11836;51.050;3.716;2023-03-14T16:09:12;17.20;99.00
23329;DHT22;11836;51.050;3.716;2023-03-14T16:11:38;17.10;98.90
23329;DHT22;11836;51.050;3.716;2023-03-14T16:14:04;17.20;99.10
23329;DHT22;11836;51.050;3.716;2023-03-14T16:16:30;17.20;98.90
23329;DHT22;11836;51.050;3.716;2023-03-14T16:18:55;17.10;99.00
23329;DHT22;11836;51.050;3.716;2023-03-14T16:21:21;17.20;99.20
23329;DHT22;11836;51.050;3.716;2023-03-14T16:23:47;17.20;99.30
23329;DHT22;11836;51.050;3.716;2023-03-14T16:26:15;17.10;98.80
23329;DHT22;11836;51.050;3.716;2023-03-14T16:28:41;17.10;98.90
23329;DHT22;11836;51.050;3.716;2023-03-14T16:31:09;17.10;99.00
23329;DHT22;11836;51.050;3.716;2023-03-14T16:33:39;17.10;99.20
23329;DHT22;11836;51.050;3.716;2023-03-14T16:36:06;17.20;98.60
23329;DHT22;11836;51.050;3.716;2023-03-14T16:38:36;17.10;98.40
23329;DHT22;11836;51.050;3.716;2023-03-14T16:41:12;17.10;98.70
23329;DHT22;11836;51.050;3.716;2023-03-14T16:43:38;17.10;99.00
23329;DHT22;11836;51.050;3.716;2023-03-14T16:46:13;17.10;99.10
23329;DHT22;11836;51.050;3.716;2023-03-14T16:48:39;17.10;99.30
23329;DHT22;11836;51.050;3.716;2023-03-14T16:51:05;17.10;99.30
23329;DHT22;11836;51.050;3.716;2023-03-14T16:53:31;17.00;99.20
23329;DHT22;11836;51.050;3.716;2023-03-14T16:55:58;17.10;99.30
23329;DHT22;11836;51.050;3.716;2023-03-14T16:58:23;17.00;99.30
23329;DHT22;11836;51.050;3.716;2023-03-14T17:00:49;17.10;99.30
23329;DHT22;11836;51.050;3.716;2023-03-14T17:03:16;17.10;99.40
23329;DHT22;11836;51.050;3.716;2023-03-14T17:05:50;17.10;99.20
23329;DHT22;11836;51.050;3.716;2023-03-14T17:08:19;17.10;99.20
23329;DHT22;11836;51.050;3.716;2023-03-14T17:10:45;17.00;99.00
23329;DHT22;11836;51.050;3.716;2023-03-14T17:13:11;17.10;98.90
23329;DHT22;11836;51.050;3.716;2023-03-14T17:15:37;17.10;98.90
23329;DHT22;11836;51.050;3.716;2023-03-14T17:18:03;17.10;98.80
23329;DHT22;11836;51.050;3.716;2023-03-14T17:20:29;17.00;98.80
23329;DHT22;11836;51.050;3.716;2023-03-14T17:22:56;17.10;98.90
23329;DHT22;11836;51.050;3.716;2023-03-14T17:25:21;17.10;98.90
23329;DHT22;11836;51.050;3.716;2023-03-14T17:27:47;17.00;98.90
23329;DHT22;11836;51.050;3.716;2023-03-14T17:30:13;17.10;99.00
23329;DHT22;11836;51.050;3.716;2023-03-14T17:32:39;17.10;99.10
23329;DHT22;11836;51.050;3.716;2023-03-14T17:35:04;17.10;99.10
23329;DHT22;11836;51.050;3.716;2023-03-14T17:37:30;17.10;99.10
23329;DHT22;11836;51.050;3.716;2023-03-14T17:39:56;17.10;99.10
23329;DHT22;11836;51.050;3.716;2023-03-14T17:42:29;17.10;99.10
23329;DHT22;11836;51.050;3.716;2023-03-14T17:44:55;17.00;98.90
23329;DHT22;11836;51.050;3.716;2023-03-14T17:47:21;17.00;98.90
23329;DHT22;11836;51.050;3.716;2023-03-14T17:49:46;17.00;99.00
23329;DHT22;11836;51.050;3.716;2023-03-14T17:52:12;17.00;99.00
23329;DHT22;11836;51.050;3.716;2023-03-14T17:54:38;17.00;99.00
23329;DHT22;11836;51.050;3.716;2023-03-14T17:57:04;17.00;99.00
23329;DHT22;11836;51.050;3.716;2023-03-14T17:59:30;17.00;99.00
23329;DHT22;11836;51.050;3.716;2023-03-14T18:01:57;17.00;99.10
23329;DHT22;11836;51.050;3.716;2023-03-14T18:04:25;17.00;99.10
23329;DHT22;11836;51.050;3.716;2023-03-14T18:06:51;17.00;99.10
23329;DHT22;11836;51.050;3.716;2023-03-14T18:09:16;17.00;99.20
23329;DHT22;11836;51.050;3.716;2023-03-14T18:11:42;16.90;99.50
23329;DHT22;11836;51.050;3.716;2023-03-14T18:14:07;16.90;99.70
23329;DHT22;11836;51.050;3.716;2023-03-14T18:16:34;16.90;99.90
23329;DHT22;11836;51.050;3.716;2023-03-14T18:19:00;16.90;99.90
23329;DHT22;11836;51.050;3.716;2023-03-14T18:21:26;16.90;99.90
23329;DHT22;11836;51.050;3.716;2023-03-14T18:23:54;16.90;99.90
23329;DHT22;11836;51.050;3.716;2023-03-14T18:26:20;16.90;99.90
23329;DHT22;11836;51.050;3.716;2023-03-14T18:28:46;16.90;99.90
23329;DHT22;11836;51.050;3.716;2023-03-14T18:31:13;16.90;99.90
23329;DHT22;11836;51.050;3.716;2023-03-14T18:33:40;16.70;95.90
23329;DHT22;11836;51.050;3.716;2023-03-14T18:36:11;16.50;97.50
23329;DHT22;11836;51.050;3.716;2023-03-14T18:38:37;16.40;99.10
23329;DHT22;11836;51.050;3.716;2023-03-14T18:41:09;16.40;99.70
23329;DHT22;11836;51.050;3.716;2023-03-14T18:43:35;16.40;99.90
23329;DHT22;11836;51.050;3.716;2023-03-14T18:46:01;16.40;99.90
23329;DHT22;11836;51.050;3.716;2023-03-14T18:48:28;16.50;99.90
23329;DHT22;11836;51.050;3.716;2023-03-14T18:50:54;16.50;99.90
23329;DHT22;11836;51.050;3.716;2023-03-14T18:53:21;16.50;99.90
23329;DHT22;11836;51.050;3.716;2023-03-14T18:55:53;16.50;99.90
23329;DHT22;11836;51.050;3.716;2023-03-14T18:58:19;16.60;99.90
23329;DHT22;11836;51.050;3.716;2023-03-14T19:00:50;16.60;99.90
23329;DHT22;11836;51.050;3.716;2023-03-14T19:03:16;16.60;99.90
23329;DHT22;11836;51.050;3.716;2023-03-14T19:05:44;16.60;99.90
23329;DHT22;11836;51.050;3.716;2023-03-14T19:08:10;16.60;99.90
23329;DHT22;11836;51.050;3.716;2023-03-14T19:10:38;16.60;99.80
23329;DHT22;11836;51.050;3.716;2023-03-14T19:13:04;16.60;99.90
23329;DHT22;11836;51.050;3.716;2023-03-14T19:15:30;16.60;99.60
23329;DHT22;11836;51.050;3.716;2023-03-14T19:17:55;16.60;99.50
23329;DHT22;11836;51.050;3.716;2023-03-14T19:20:21;16.60;99.50
23329;DHT22;11836;51.050;3.716;2023-03-14T19:22:47;16.70;99.50
23329;DHT22;11836;51.050;3.716;2023-03-14T19:25:13;16.70;99.50
23329;DHT22;11836;51.050;3.716;2023-03-14T19:27:38;16.70;99.30
23329;DHT22;11836;51.050;3.716;2023-03-14T19:30:05;16.60;99.30
23329;DHT22;11836;51.050;3.716;2023-03-14T19:32:31;16.70;99.30
23329;DHT22;11836;51.050;3.716;2023-03-14T19:34:57;16.70;99.30
23329;DHT22;11836;51.050;3.716;2023-03-14T19:37:23;16.60;99.20
23329;DHT22;11836;51.050;3.716;2023-03-14T19:39:51;16.60;99.10
23329;DHT22;11836;51.050;3.716;2023-03-14T19:42:17;16.70;99.20
23329;DHT22;11836;51.050;3.716;2023-03-14T19:44:42;16.70;99.10
23329;DHT22;11836;51.050;3.716;2023-03-14T19:47:08;16.70;99.10
23329;DHT22;11836;51.050;3.716;2023-03-14T19:49:34;16.60;99.10
23329;DHT22;11836;51.050;3.716;2023-03-14T19:51:59;16.60;99.00
23329;DHT22;11836;51.050;3.716;2023-03-14T19:54:26;16.60;98.90
23329;DHT22;11836;51.050;3.716;2023-03-14T19:56:51;16.70;98.90
23329;DHT22;11836;51.050;3.716;2023-03-14T19:59:17;16.50;98.80
23329;DHT22;11836;51.050;3.716;2023-03-14T20:01:43;16.60;98.80
23329;DHT22;11836;51.050;3.716;2023-03-14T20:04:11;16.60;98.80
23329;DHT22;11836;51.050;3.716;2023-03-14T20:06:40;16.60;98.90
23329;DHT22;11836;51.050;3.716;2023-03-14T20:09:09;16.60;98.80
23329;DHT22;11836;51.050;3.716;2023-03-14T20:11:35;16.60;98.80
23329;DHT22;11836;51.050;3.716;2023-03-14T20:14:06;16.60;98.80
23329;DHT22;11836;51.050;3.716;2023-03-14T20:16:32;16.60;98.80
23329;DHT22;11836;51.050;3.716;2023-03-14T20:19:02;16.60;98.90
23329;DHT22;11836;51.050;3.716;2023-03-14T20:21:28;16.60;98.90
23329;DHT22;11836;51.050;3.716;2023-03-14T20:23:54;16.50;98.90
23329;DHT22;11836;51.050;3.716;2023-03-14T20:26:19;16.60;98.90
23329;DHT22;11836;51.050;3.716;2023-03-14T20:28:45;16.50;98.90
23329;DHT22;11836;51.050;3.716;2023-03-14T20:31:11;16.60;99.00
23329;DHT22;11836;51.050;3.716;2023-03-14T20:33:39;16.60;98.90
23329;DHT22;11836;51.050;3.716;2023-03-14T20:36:07;16.60;98.90
23329;DHT22;11836;51.050;3.716;2023-03-14T20:38:34;16.60;98.90
23329;DHT22;11836;51.050;3.716;2023-03-14T20:41:01;16.60;98.90
23329;DHT22;11836;51.050;3.716;2023-03-14T20:43:27;16.60;98.80
23329;DHT22;11836;51.050;3.716;2023-03-14T20:45:55;16.60;98.80
23329;DHT22;11836;51.050;3.716;2023-03-14T20:48:22;16.60;99.10
23329;DHT22;11836;51.050;3.716;2023-03-14T20:50:53;16.60;98.80
23329;DHT22;11836;51.050;3.716;2023-03-14T20:53:51;16.60;98.70
23329;DHT22;11836;51.050;3.716;2023-03-14T20:56:16;16.50;98.70
23329;DHT22;11836;51.050;3.716;2023-03-14T20:58:45;16.50;98.70
23329;DHT22;11836;51.050;3.716;2023-03-14T21:01:11;16.50;98.70
23329;DHT22;11836;51.050;3.716;2023-03-14T21:03:37;16.50;98.70
23329;DHT22;11836;51.050;3.716;2023-03-14T21:06:08;16.50;98.70
23329;DHT22;11836;51.050;3.716;2023-03-14T21:08:34;16.60;98.70
23329;DHT22;11836;51.050;3.716;2023-03-14T21:11:00;16.50;98.60
23329;DHT22;11836;51.050;3.716;2023-03-14T21:13:26;16.50;98.60
23329;DHT22;11836;51.050;3.716;2023-03-14T21:15:52;16.50;98.70
23329;DHT22;11836;51.050;3.716;2023-03-14T21:18:18;16.50;98.70
23329;DHT22;11836;51.050;3.716;2023-03-14T21:20:44;16.50;98.70
23329;DHT22;11836;51.050;3.716;2023-03-14T21:23:11;16.50;98.60
23329;DHT22;11836;51.050;3.716;2023-03-14T21:25:37;16.50;98.60
23329;DHT22;11836;51.050;3.716;2023-03-14T21:28:03;16.50;98.60
23329;DHT22;11836;51.050;3.716;2023-03-14T21:30:32;16.50;98.60
23329;DHT22;11836;51.050;3.716;2023-03-14T21:32:58;16.40;98.50
23329;DHT22;11836;51.050;3.716;2023-03-14T21:35:24;16.40;98.50
23329;DHT22;11836;51.050;3.716;2023-03-14T21:37:50;16.40;98.50
23329;DHT22;11836;51.050;3.716;2023-03-14T21:40:16;16.40;98.50
23329;DHT22;11836;51.050;3.716;2023-03-14T21:42:42;16.40;98.50
23329;DHT22;11836;51.050;3.716;2023-03-14T21:45:08;16.40;98.40
23329;DHT22;11836;51.050;3.716;2023-03-14T21:47:34;16.40;98.40
23329;DHT22;11836;51.050;3.716;2023-03-14T21:49:59;16.30;98.40
23329;DHT22;11836;51.050;3.716;2023-03-14T21:52:26;16.30;98.40
23329;DHT22;11836;51.050;3.716;2023-03-14T21:54:52;16.30;98.40
23329;DHT22;11836;51.050;3.716;2023-03-14T21:57:17;16.30;98.40
23329;DHT22;11836;51.050;3.716;2023-03-14T21:59:45;16.30;98.40
23329;DHT22;11836;51.050;3.716;2023-03-14T22:02:15;16.30;98.40
23329;DHT22;11836;51.050;3.716;2023-03-14T22:04:41;16.30;98.50
23329;DHT22;11836;51.050;3.716;2023-03-14T22:07:09;16.30;98.60
23329;DHT22;11836;51.050;3.716;2023-03-14T22:09:38;16.30;98.60
23329;DHT22;11836;51.050;3.716;2023-03-14T22:12:04;16.20;98.60
23329;DHT22;11836;51.050;3.716;2023-03-14T22:14:29;16.20;98.70
23329;DHT22;11836;51.050;3.716;2023-03-14T22:16:55;16.20;98.70
23329;DHT22;11836;51.050;3.716;2023-03-14T22:19:26;16.20;98.70
23329;DHT22;11836;51.050;3.716;2023-03-14T22:21:52;16.20;98.80
23329;DHT22;11836;51.050;3.716;2023-03-14T22:24:18;16.10;98.70
23329;DHT22;11836;51.050;3.716;2023-03-14T22:26:44;16.20;98.80
23329;DHT22;11836;51.050;3.716;2023-03-14T22:29:09;16.10;98.70
23329;DHT22;11836;51.050;3.716;2023-03-14T22:31:35;16.10;98.70
23329;DHT22;11836;51.050;3.716;2023-03-14T22:34:01;16.10;98.70
23329;DHT22;11836;51.050;3.716;2023-03-14T22:36:27;16.10;98.70
23329;DHT22;11836;51.050;3.716;2023-03-14T22:38:52;16.10;98.70
23329;DHT22;11836;51.050;3.716;2023-03-14T22:41:18;16.00;98.70
23329;DHT22;11836;51.050;3.716;2023-03-14T22:43:44;16.10;98.70
23329;DHT22;11836;51.050;3.716;2023-03-14T22:46:10;16.10;98.60
23329;DHT22;11836;51.050;3.716;2023-03-14T22:48:36;16.00;98.40
23329;DHT22;11836;51.050;3.716;2023-03-14T22:51:07;16.00;98.50
23329;DHT22;11836;51.050;3.716;2023-03-14T22:53:33;16.00;98.60
23329;DHT22;11836;51.050;3.716;2023-03-14T22:56:01;16.00;98.60
23329;DHT22;11836;51.050;3.716;2023-03-14T22:58:27;16.00;98.60
23329;DHT22;11836;51.050;3.716;2023-03-14T23:00:54;16.00;98.60
23329;DHT22;11836;51.050;3.716;2023-03-14T23:03:20;15.90;98.60
23329;DHT22;11836;51.050;3.716;2023-03-14T23:05:45;15.90;98.60
23329;DHT22;11836;51.050;3.716;2023-03-14T23:08:14;15.90;98.60
23329;DHT22;11836;51.050;3.716;2023-03-14T23:10:40;15.90;98.70
23329;DHT22;11836;51.050;3.716;2023-03-14T23:13:08;15.90;98.60
23329;DHT22;11836;51.050;3.716;2023-03-14T23:15:35;15.90;98.60
23329;DHT22;11836;51.050;3.716;2023-03-14T23:18:00;15.90;98.70
23329;DHT22;11836;51.050;3.716;2023-03-14T23:20:27;15.90;98.70
23329;DHT22;11836;51.050;3.716;2023-03-14T23:22:53;15.90;98.70
23329;DHT22;11836;51.050;3.716;2023-03-14T23:25:18;15.80;98.70
23329;DHT22;11836;51.050;3.716;2023-03-14T23:27:44;15.80;98.60
23329;DHT22;11836;51.050;3.716;2023-03-14T23:30:15;15.80;98.60
23329;DHT22;11836;51.050;3.716;2023-03-14T23:32:41;15.80;98.70